createdAt,value
2023-06-17T00:01:37.212Z,16.70
2023-06-17T00:06:40.188Z,16.61
2023-06-17T00:11:43.111Z,16.48
2023-06-17T00:16:45.968Z,16.35
2023-06-17T00:21:51.259Z,16.23
2023-06-17T00:26:55.033Z,16.10
2023-06-17T00:32:00.454Z,15.98
2023-06-17T00:37:12.343Z,15.90
2023-06-17T00:42:32.513Z,15.82
2023-06-17T00:47:40.386Z,15.65
2023-06-17T00:52:52.811Z,15.48
2023-06-17T00:57:58.661Z,15.32
2023-06-17T01:03:01.616Z,15.24
2023-06-17T01:09:19.806Z,15.15
2023-06-17T01:14:26.067Z,15.11
2023-06-17T01:19:33.068Z,15.12
2023-06-17T01:24:36.391Z,15.01
2023-06-17T01:29:39.926Z,14.91
2023-06-17T01:35:00.959Z,14.87
2023-06-17T01:40:09.122Z,14.82
2023-06-17T01:45:12.027Z,14.83
2023-06-17T01:50:20.740Z,14.85
2023-06-17T01:55:25.970Z,14.76
2023-06-17T02:00:31.888Z,14.67
2023-06-17T02:05:34.865Z,14.61
2023-06-17T02:10:37.873Z,14.52
2023-06-17T02:15:43.853Z,14.45
2023-06-17T02:20:50.495Z,14.44
2023-06-17T02:25:56.336Z,14.42
2023-06-17T02:30:59.794Z,14.36
2023-06-17T02:36:07.470Z,14.32
2023-06-17T02:41:10.444Z,14.29
2023-06-17T02:46:16.050Z,14.25
2023-06-17T02:51:21.045Z,14.22
2023-06-17T02:56:24.062Z,14.20
2023-06-17T03:01:30.510Z,14.21
2023-06-17T03:06:38.127Z,14.21
2023-06-17T03:11:42.469Z,14.24
2023-06-17T03:16:50.105Z,14.27
2023-06-17T03:22:01.881Z,14.29
2023-06-17T03:27:07.752Z,14.28
2023-06-17T03:32:10.715Z,14.33
2023-06-17T03:37:13.895Z,14.39
2023-06-17T03:42:17.846Z,14.45
2023-06-17T03:47:20.784Z,14.50
2023-06-17T03:52:24.055Z,14.51
2023-06-17T03:57:26.991Z,14.55
2023-06-17T04:02:30.106Z,14.53
2023-06-17T04:07:35.410Z,14.58
2023-06-17T04:12:39.495Z,14.64
2023-06-17T04:17:42.453Z,14.71
2023-06-17T04:22:45.445Z,14.82
2023-06-17T04:27:54.811Z,14.91
2023-06-17T04:33:01.549Z,15.01
2023-06-17T04:38:07.943Z,15.10
2023-06-17T04:43:11.240Z,15.15
2023-06-17T04:48:15.746Z,15.14
2023-06-17T04:53:26.463Z,15.21
2023-06-17T04:58:29.425Z,15.30
2023-06-17T05:03:54.057Z,15.38
2023-06-17T05:08:57.007Z,15.44
2023-06-17T05:13:59.973Z,15.57
2023-06-17T05:19:03.676Z,15.67
2023-06-17T05:24:06.671Z,15.79
2023-06-17T05:29:10.036Z,15.83
2023-06-17T05:34:14.423Z,15.87
2023-06-17T05:39:17.393Z,16.00
2023-06-17T05:44:21.005Z,16.05
2023-06-17T05:49:26.980Z,16.08
2023-06-17T05:54:32.790Z,16.20
2023-06-17T05:59:37.640Z,16.47
2023-06-17T06:04:40.968Z,16.63
2023-06-17T06:09:44.283Z,16.74
2023-06-17T06:14:48.725Z,16.99
2023-06-17T06:19:54.429Z,17.09
2023-06-17T06:24:58.191Z,17.14
2023-06-17T06:30:04.555Z,17.25
2023-06-17T06:35:10.088Z,17.30
2023-06-17T06:40:14.170Z,17.42
2023-06-17T06:45:19.779Z,17.44
2023-06-17T06:50:22.934Z,17.38
2023-06-17T06:55:29.509Z,17.58
2023-06-17T07:00:32.420Z,17.67
2023-06-17T07:05:47.372Z,17.64
2023-06-17T07:10:51.330Z,17.78
2023-06-17T07:15:56.644Z,17.76
2023-06-17T07:21:02.544Z,17.82
2023-06-17T07:26:07.543Z,18.11
2023-06-17T07:31:12.753Z,18.41
2023-06-17T07:36:15.812Z,18.51
2023-06-17T07:41:21.475Z,18.61
2023-06-17T07:46:24.378Z,18.97
2023-06-17T07:51:27.456Z,19.29
2023-06-17T07:56:30.487Z,19.33
2023-06-17T08:01:34.776Z,19.43
2023-06-17T08:06:38.839Z,19.50
2023-06-17T08:11:41.860Z,19.52
2023-06-17T08:16:45.042Z,19.61
2023-06-17T08:21:48.383Z,19.73
2023-06-17T08:26:52.000Z,19.91
2023-06-17T08:31:55.439Z,20.11
2023-06-17T08:36:58.391Z,20.21
2023-06-17T08:42:15.533Z,20.30
2023-06-17T08:47:18.515Z,20.44
2023-06-17T08:52:21.531Z,20.34
2023-06-17T08:57:24.561Z,20.52
2023-06-17T09:02:27.489Z,20.75
2023-06-17T09:07:30.402Z,21.03
2023-06-17T09:12:39.874Z,21.12
2023-06-17T09:17:46.178Z,21.39
2023-06-17T09:22:49.578Z,21.68
2023-06-17T09:28:14.502Z,21.96
2023-06-17T09:33:21.955Z,22.45
2023-06-17T09:38:24.963Z,22.54
2023-06-17T09:43:28.950Z,22.73
2023-06-17T09:48:38.657Z,22.98
2023-06-17T09:53:42.493Z,22.79
2023-06-17T09:58:46.149Z,23.05
2023-06-17T10:03:50.418Z,23.36
2023-06-17T10:08:53.937Z,23.52
2023-06-17T10:14:13.979Z,23.57
2023-06-17T10:19:25.934Z,23.65
2023-06-17T10:24:28.915Z,23.91
2023-06-17T10:29:33.720Z,24.14
2023-06-17T10:34:36.691Z,23.83
2023-06-17T10:39:53.187Z,23.26
2023-06-17T10:44:56.632Z,22.84
2023-06-17T10:50:01.825Z,22.48
2023-06-17T10:55:05.285Z,22.29
2023-06-17T11:00:10.426Z,22.36
2023-06-17T11:05:13.913Z,22.48
2023-06-17T11:10:18.399Z,22.16
2023-06-17T11:15:23.465Z,21.67
2023-06-17T11:20:26.360Z,21.39
2023-06-17T11:25:43.672Z,21.14
2023-06-17T11:30:50.525Z,20.99
2023-06-17T11:35:54.850Z,20.96
2023-06-17T11:40:59.143Z,21.00
2023-06-17T11:46:03.423Z,21.07
2023-06-17T11:51:06.864Z,21.21
2023-06-17T11:56:10.194Z,21.38
2023-06-17T12:01:14.537Z,21.71
2023-06-17T12:06:21.483Z,22.16
2023-06-17T12:11:32.690Z,22.72
2023-06-17T12:16:37.150Z,23.18
2023-06-17T12:21:40.596Z,23.83
2023-06-17T12:26:43.510Z,25.41
2023-06-17T12:31:47.003Z,26.59
2023-06-17T12:36:50.020Z,27.07
2023-06-17T12:41:52.947Z,29.08
2023-06-17T12:46:55.960Z,29.84
2023-06-17T12:51:58.827Z,29.85
2023-06-17T12:57:02.109Z,28.50
2023-06-17T13:02:05.363Z,28.76
2023-06-17T13:07:08.256Z,29.87
2023-06-17T13:12:12.468Z,29.34
2023-06-17T13:17:16.057Z,28.23
2023-06-17T13:22:20.121Z,27.86
2023-06-17T13:27:23.888Z,27.30
2023-06-17T13:32:29.413Z,27.15
2023-06-17T13:37:33.251Z,27.29
2023-06-17T13:42:36.744Z,29.30
2023-06-17T13:47:40.215Z,31.05
2023-06-17T13:52:43.513Z,29.95
2023-06-17T13:57:47.641Z,28.75
2023-06-17T14:02:50.676Z,28.18
2023-06-17T14:07:53.907Z,28.63
2023-06-17T14:12:57.042Z,28.45
2023-06-17T14:17:59.910Z,28.98
2023-06-17T14:23:04.404Z,29.60
2023-06-17T14:28:07.489Z,29.32
2023-06-17T14:33:11.116Z,29.08
2023-06-17T14:38:14.098Z,29.04
2023-06-17T14:43:17.083Z,28.90
2023-06-17T14:48:21.613Z,28.78
2023-06-17T14:53:32.481Z,28.65
2023-06-17T14:58:35.443Z,28.42
2023-06-17T15:03:38.799Z,28.07
2023-06-17T15:08:42.179Z,27.59
2023-06-17T15:13:45.678Z,27.13
2023-06-17T15:18:48.634Z,26.97
2023-06-17T15:23:52.129Z,26.85
2023-06-17T15:28:55.024Z,26.46
2023-06-17T15:33:59.730Z,25.88
2023-06-17T15:39:36.123Z,25.41
2023-06-17T15:44:39.123Z,25.07
2023-06-17T15:49:42.191Z,24.96
2023-06-17T15:54:45.081Z,24.98
2023-06-17T15:59:47.985Z,25.19
2023-06-17T16:04:54.665Z,25.46
2023-06-17T16:09:57.938Z,25.54
2023-06-17T16:15:00.893Z,25.45
2023-06-17T16:20:05.243Z,25.35
2023-06-17T16:25:08.786Z,25.21
2023-06-17T16:30:12.309Z,25.08
2023-06-17T16:35:15.265Z,24.96
2023-06-17T16:40:18.152Z,24.79
2023-06-17T16:45:21.096Z,24.66
2023-06-17T16:50:24.543Z,24.43
2023-06-17T16:55:27.797Z,24.25
2023-06-17T17:00:30.810Z,24.14
2023-06-17T17:05:34.110Z,24.05
2023-06-17T17:10:37.452Z,23.89
2023-06-17T17:15:41.617Z,23.72
2023-06-17T17:20:44.812Z,23.53
2023-06-17T17:25:47.650Z,23.36
2023-06-17T17:30:51.140Z,23.16
2023-06-17T17:35:54.056Z,22.91
2023-06-17T17:40:57.003Z,22.71
2023-06-17T17:46:02.234Z,22.45
2023-06-17T17:51:05.457Z,22.20
2023-06-17T17:56:08.476Z,22.00
2023-06-17T18:01:11.427Z,21.83
2023-06-17T18:06:14.339Z,21.65
2023-06-17T18:11:17.333Z,21.47
2023-06-17T18:16:20.465Z,21.28
2023-06-17T18:21:28.194Z,21.12
2023-06-17T18:26:31.723Z,20.92
2023-06-17T18:31:34.617Z,20.71
2023-06-17T18:36:37.567Z,20.61
2023-06-17T18:41:43.357Z,20.49
2023-06-17T18:46:46.654Z,20.41
2023-06-17T18:51:50.865Z,20.36
2023-06-17T18:56:53.839Z,20.29
2023-06-17T19:01:57.324Z,20.22
2023-06-17T19:07:01.645Z,20.16
2023-06-17T19:12:07.193Z,20.11
2023-06-17T19:17:10.468Z,20.08
2023-06-17T19:22:13.446Z,20.01
2023-06-17T19:27:16.393Z,19.95
2023-06-17T19:32:20.018Z,19.91
2023-06-17T19:37:24.338Z,19.81
2023-06-17T19:42:27.344Z,19.77
2023-06-17T19:47:30.374Z,19.75
2023-06-17T19:52:33.346Z,19.73
2023-06-17T19:57:36.814Z,19.70
2023-06-17T20:02:40.465Z,19.64
2023-06-17T20:07:43.873Z,19.55
2023-06-17T20:12:47.379Z,19.48
2023-06-17T20:17:50.465Z,19.43
2023-06-17T20:22:53.324Z,19.38
2023-06-17T20:27:56.340Z,19.36
2023-06-17T20:32:59.345Z,19.32
2023-06-17T20:38:02.798Z,19.25
2023-06-17T20:43:06.246Z,19.20
2023-06-17T20:48:09.205Z,19.16
2023-06-17T20:53:12.104Z,19.13
2023-06-17T20:58:14.940Z,19.08
2023-06-17T21:03:17.907Z,19.02
2023-06-17T21:08:20.910Z,18.99
2023-06-17T21:13:24.390Z,18.95
2023-06-17T21:18:30.147Z,18.92
2023-06-17T21:23:33.031Z,18.88
2023-06-17T21:28:35.929Z,18.83
2023-06-17T21:33:40.131Z,18.75
2023-06-17T21:38:43.629Z,18.67
2023-06-17T21:43:46.624Z,18.62
2023-06-17T21:48:49.620Z,18.58
2023-06-17T21:53:52.593Z,18.50
2023-06-17T21:58:55.678Z,18.43
2023-06-17T22:03:58.918Z,18.37
2023-06-17T22:09:02.117Z,18.32
2023-06-17T22:14:05.199Z,18.29
2023-06-17T22:19:08.730Z,18.25
2023-06-17T22:24:12.149Z,18.19
2023-06-17T22:29:15.085Z,18.14
2023-06-17T22:34:18.088Z,18.10
2023-06-17T22:39:21.078Z,18.09
2023-06-17T22:44:24.212Z,18.07
2023-06-17T22:49:27.109Z,17.99
2023-06-17T22:54:32.526Z,17.95
2023-06-17T22:59:35.762Z,17.89
2023-06-17T23:04:39.002Z,17.84
2023-06-17T23:09:42.004Z,17.79
2023-06-17T23:14:44.856Z,17.74
2023-06-17T23:19:49.456Z,17.69
2023-06-17T23:24:52.913Z,17.64
2023-06-17T23:29:56.243Z,17.60
2023-06-17T23:35:00.564Z,17.54
2023-06-17T23:40:04.952Z,17.49
2023-06-17T23:45:09.220Z,17.40
2023-06-17T23:50:12.306Z,17.28
2023-06-17T23:55:15.410Z,17.21
